Yuriy Lisyanskiy — UIRX — position and weather

sailwx.info

Track history (hours):
 
Tides and Currents Weather Stations Pressure Air Temp Water Temp Dewpoint Dewpoint Depression Visibility Wind Speed Wind Dir Waves Ship Positions

Yuriy Lisyanskiy

Last reported at 2015-Feb-27 20:32 UTC. Time now 2015-Feb-27 21:10 UTC.
Position N 59°55' E 030°15'.

Length 64 m; draft 5.5 m.

Type: Other ship. MMSI: 273426110.

Date/timePositionNaut miles runAvg speedWind from/ knotsBaromVisibWave heightAir tempDewpointWater temp
2015-Feb-27 20:32N 59°55' E 030°15'0 0.0
2015-Feb-27 19:33N 59°55' E 030°15'0 0.0
2015-Feb-27 18:34N 59°55' E 030°15'0 0.0
2015-Feb-27 17:32N 59°55' E 030°15'0 0.0
2015-Feb-27 16:26N 59°55' E 030°15'0 0.0
2015-Feb-27 15:33N 59°55' E 030°15'0 0.0
2015-Feb-27 14:32N 59°55' E 030°15'0 0.0
2015-Feb-27 13:33N 59°55' E 030°15'0 0.0
2015-Feb-27 12:33N 59°55' E 030°15'0 0.0
2015-Feb-27 11:31N 59°55' E 030°15'0 0.0
2015-Feb-27 10:27N 59°55' E 030°15'0 0.0
2015-Feb-27 09:30N 59°55' E 030°15'0 0.0
2015-Feb-27 08:32N 59°55' E 030°15'0 0.0
2015-Feb-27 07:33N 59°55' E 030°15'0 0.0
2015-Feb-27 06:31N 59°55' E 030°15'0 0.0
2015-Feb-27 05:30N 59°55' E 030°15'0 0.0
2015-Feb-27 04:33N 59°55' E 030°15'0 0.0
2015-Feb-27 03:32N 59°55' E 030°15'0 0.0
2015-Feb-27 02:31N 59°55' E 030°15'0 0.0
2015-Feb-27 01:31N 59°55' E 030°15'0 0.0
2015-Feb-27 00:28N 59°55' E 030°15'0 0.0
2015-Feb-26 23:33N 59°55' E 030°15'0 0.0
2015-Feb-26 22:27N 59°55' E 030°15'0 0.0
2015-Feb-26 21:32N 59°55' E 030°15'0 0.0
2015-Feb-26 20:27N 59°55' E 030°15'0 0.0
2015-Feb-26 19:32N 59°55' E 030°15'0 0.0
2015-Feb-26 18:29N 59°55' E 030°15'0 0.0
2015-Feb-26 17:31N 59°55' E 030°15'0 0.0
2015-Feb-26 16:25N 59°55' E 030°15'0 0.0
2015-Feb-26 15:31N 59°55' E 030°15'0 0.0
2015-Feb-26 14:21N 59°55' E 030°15'0 0.0
2015-Feb-26 13:31N 59°55' E 030°15'0 0.0
2015-Feb-26 12:18N 59°55' E 030°15'0 0.0
2015-Feb-26 11:08N 59°55' E 030°15'0 0.0
2015-Feb-26 10:27N 59°55' E 030°15'0 0.0
2015-Feb-26 09:31N 59°55' E 030°15'0 0.0
2015-Feb-26 08:32N 59°55' E 030°15'0 0.0
2015-Feb-26 07:27N 59°55' E 030°15'0 0.0
2015-Feb-26 06:11N 59°55' E 030°15'0 0.0
2015-Feb-26 04:23N 59°55' E 030°15'0 0.0
2015-Feb-26 03:33N 59°55' E 030°15'0 0.0
2015-Feb-26 02:03N 59°55' E 030°15'0 0.0
2015-Feb-26 00:33N 59°55' E 030°15'0 0.0
2015-Feb-25 23:33N 59°55' E 030°15'0 0.0
2015-Feb-25 22:29N 59°55' E 030°15'0 0.0
2015-Feb-25 20:28N 59°55' E 030°15'0 0.0
2015-Feb-25 19:29N 59°55' E 030°15'0 0.0
2015-Feb-25 18:29N 59°55' E 030°15'0 0.0
2015-Feb-25 17:33N 59°55' E 030°15'0 0.0
2015-Feb-25 16:25N 59°55' E 030°15'0 0.0
2015-Feb-25 15:33N 59°55' E 030°15'0 0.0
2015-Feb-25 14:32N 59°55' E 030°15'0 0.0
2015-Feb-25 13:32N 59°55' E 030°15'0 0.0
2015-Feb-25 12:33N 59°55' E 030°15'0 0.0
2015-Feb-25 11:33N 59°55' E 030°15'2 2.0
2015-Feb-25 10:33N 59°53' E 030°12'0 0.2
2015-Feb-25 09:31N 59°53' E 030°13'0 0.0
2015-Feb-25 08:33N 59°53' E 030°13'0 0.0
2015-Feb-25 07:29N 59°53' E 030°13'3 0.2
2015-Feb-24 17:23N 59°54' E 030°07'3 0.7
2015-Feb-24 13:16N 59°53' E 030°13'0 0.0
2015-Feb-24 12:33N 59°53' E 030°13'0 0.0
2015-Feb-24 11:13N 59°53' E 030°13'1 0.0
2015-Feb-23 11:33N 59°53' E 030°11'1 0.8
2015-Feb-23 10:30N 59°53' E 030°13'0 0.0
2015-Feb-23 09:31N 59°53' E 030°13'0 0.0
2015-Feb-23 08:31N 59°53' E 030°13'0 0.0
2015-Feb-23 07:32N 59°53' E 030°13'0 0.0
2015-Feb-23 06:31N 59°53' E 030°13'0 0.0
2015-Feb-23 05:32N 59°53' E 030°13'0 0.0
2015-Feb-23 04:31N 59°53' E 030°13'0 0.0
2015-Feb-23 03:33N 59°53' E 030°13'0 0.0
2015-Feb-23 02:27N 59°53' E 030°13'0 0.0
2015-Feb-23 01:33N 59°53' E 030°13'0 0.0
2015-Feb-23 00:30N 59°53' E 030°13'0 0.0
2015-Feb-22 23:33N 59°53' E 030°13'0 0.0
2015-Feb-22 22:31N 59°53' E 030°13'0 0.0
2015-Feb-22 21:32N 59°53' E 030°13'0 0.0
2015-Feb-22 20:25N 59°53' E 030°13'0 0.0
2015-Feb-22 19:32N 59°53' E 030°13'0 0.0
2015-Feb-22 18:31N 59°53' E 030°13'0 0.0
2015-Feb-22 17:31N 59°53' E 030°13'0 0.0
2015-Feb-22 16:32N 59°53' E 030°13'0 0.0
2015-Feb-22 15:29N 59°53' E 030°13'0 0.0
2015-Feb-22 14:32N 59°53' E 030°13'0 0.0
2015-Feb-22 13:29N 59°53' E 030°13'0 0.0
2015-Feb-22 12:33N 59°53' E 030°13'0 0.0
2015-Feb-22 11:27N 59°53' E 030°13'0 0.0
2015-Feb-22 10:25N 59°53' E 030°13'0 0.0
2015-Feb-22 09:31N 59°53' E 030°13'0 0.0
2015-Feb-22 08:33N 59°53' E 030°13'3 0.1
2015-Feb-20 21:11N 59°54' E 030°07'3 4.3
2015-Feb-20 20:34N 59°53' E 030°12'0 0.2
2015-Feb-20 19:33N 59°53' E 030°13'0 0.0
2015-Feb-20 18:33N 59°53' E 030°13'0 0.0
2015-Feb-20 17:32N 59°53' E 030°13'0 0.0
2015-Feb-20 16:33N 59°53' E 030°13'0 0.0
2015-Feb-20 15:34N 59°53' E 030°13'0 0.0
2015-Feb-20 14:33N 59°53' E 030°13'0 0.0
2015-Feb-20 13:33N 59°53' E 030°13'0 0.0
2015-Feb-20 12:33N 59°53' E 030°13'5 0.3
2015-Feb-19 20:14N 59°55' E 030°02'5 8.0
2015-Feb-19 19:33N 59°53' E 030°13'0 0.1
2015-Feb-19 18:26N 59°53' E 030°13'0 0.0
2015-Feb-19 08:04N 59°53' E 030°13'1 0.1
2015-Feb-18 16:30N 59°53' E 030°11'1 0.0
2015-Feb-17 21:33N 59°53' E 030°13'  
Track history (hours):
 
Tides and Currents Weather Stations Pressure Air Temp Water Temp Dewpoint Dewpoint Depression Visibility Wind Speed Wind Dir Waves Ship Positions

Yuriy Lisyanskiy

Last reported at 2015-Feb-27 20:32 UTC. Time now 2015-Feb-27 21:10 UTC.
Position N 59°55' E 030°15'.

Length 64 m; draft 5.5 m.

Type: Other ship. MMSI: 273426110.

Date/timePositionNaut miles runAvg speedWind from/ knotsBaromVisibWave heightAir tempDewpointWater temp
2015-Feb-27 20:32N 59°55' E 030°15'0 0.0
2015-Feb-27 19:33N 59°55' E 030°15'0 0.0
2015-Feb-27 18:34N 59°55' E 030°15'0 0.0
2015-Feb-27 17:32N 59°55' E 030°15'0 0.0
2015-Feb-27 16:26N 59°55' E 030°15'0 0.0
2015-Feb-27 15:33N 59°55' E 030°15'0 0.0
2015-Feb-27 14:32N 59°55' E 030°15'0 0.0
2015-Feb-27 13:33N 59°55' E 030°15'0 0.0
2015-Feb-27 12:33N 59°55' E 030°15'0 0.0
2015-Feb-27 11:31N 59°55' E 030°15'0 0.0
2015-Feb-27 10:27N 59°55' E 030°15'0 0.0
2015-Feb-27 09:30N 59°55' E 030°15'0 0.0
2015-Feb-27 08:32N 59°55' E 030°15'0 0.0
2015-Feb-27 07:33N 59°55' E 030°15'0 0.0
2015-Feb-27 06:31N 59°55' E 030°15'0 0.0
2015-Feb-27 05:30N 59°55' E 030°15'0 0.0
2015-Feb-27 04:33N 59°55' E 030°15'0 0.0
2015-Feb-27 03:32N 59°55' E 030°15'0 0.0
2015-Feb-27 02:31N 59°55' E 030°15'0 0.0
2015-Feb-27 01:31N 59°55' E 030°15'0 0.0
2015-Feb-27 00:28N 59°55' E 030°15'0 0.0
2015-Feb-26 23:33N 59°55' E 030°15'0 0.0
2015-Feb-26 22:27N 59°55' E 030°15'0 0.0
2015-Feb-26 21:32N 59°55' E 030°15'0 0.0
2015-Feb-26 20:27N 59°55' E 030°15'0 0.0
2015-Feb-26 19:32N 59°55' E 030°15'0 0.0
2015-Feb-26 18:29N 59°55' E 030°15'0 0.0
2015-Feb-26 17:31N 59°55' E 030°15'0 0.0
2015-Feb-26 16:25N 59°55' E 030°15'0 0.0
2015-Feb-26 15:31N 59°55' E 030°15'0 0.0
2015-Feb-26 14:21N 59°55' E 030°15'0 0.0
2015-Feb-26 13:31N 59°55' E 030°15'0 0.0
2015-Feb-26 12:18N 59°55' E 030°15'0 0.0
2015-Feb-26 11:08N 59°55' E 030°15'0 0.0
2015-Feb-26 10:27N 59°55' E 030°15'0 0.0
2015-Feb-26 09:31N 59°55' E 030°15'0 0.0
2015-Feb-26 08:32N 59°55' E 030°15'0 0.0
2015-Feb-26 07:27N 59°55' E 030°15'0 0.0
2015-Feb-26 06:11N 59°55' E 030°15'0 0.0
2015-Feb-26 04:23N 59°55' E 030°15'0 0.0
2015-Feb-26 03:33N 59°55' E 030°15'0 0.0
2015-Feb-26 02:03N 59°55' E 030°15'0 0.0
2015-Feb-26 00:33N 59°55' E 030°15'0 0.0
2015-Feb-25 23:33N 59°55' E 030°15'0 0.0
2015-Feb-25 22:29N 59°55' E 030°15'0 0.0
2015-Feb-25 20:28N 59°55' E 030°15'0 0.0
2015-Feb-25 19:29N 59°55' E 030°15'0 0.0
2015-Feb-25 18:29N 59°55' E 030°15'0 0.0
2015-Feb-25 17:33N 59°55' E 030°15'0 0.0
2015-Feb-25 16:25N 59°55' E 030°15'0 0.0
2015-Feb-25 15:33N 59°55' E 030°15'0 0.0
2015-Feb-25 14:32N 59°55' E 030°15'0 0.0
2015-Feb-25 13:32N 59°55' E 030°15'0 0.0
2015-Feb-25 12:33N 59°55' E 030°15'0 0.0
2015-Feb-25 11:33N 59°55' E 030°15'2 2.0
2015-Feb-25 10:33N 59°53' E 030°12'0 0.2
2015-Feb-25 09:31N 59°53' E 030°13'0 0.0
2015-Feb-25 08:33N 59°53' E 030°13'0 0.0
2015-Feb-25 07:29N 59°53' E 030°13'3 0.2
2015-Feb-24 17:23N 59°54' E 030°07'3 0.7
2015-Feb-24 13:16N 59°53' E 030°13'0 0.0
2015-Feb-24 12:33N 59°53' E 030°13'0 0.0
2015-Feb-24 11:13N 59°53' E 030°13'1 0.0
2015-Feb-23 11:33N 59°53' E 030°11'1 0.8
2015-Feb-23 10:30N 59°53' E 030°13'0 0.0
2015-Feb-23 09:31N 59°53' E 030°13'0 0.0
2015-Feb-23 08:31N 59°53' E 030°13'0 0.0
2015-Feb-23 07:32N 59°53' E 030°13'0 0.0
2015-Feb-23 06:31N 59°53' E 030°13'0 0.0
2015-Feb-23 05:32N 59°53' E 030°13'0 0.0
2015-Feb-23 04:31N 59°53' E 030°13'0 0.0
2015-Feb-23 03:33N 59°53' E 030°13'0 0.0
2015-Feb-23 02:27N 59°53' E 030°13'0 0.0
2015-Feb-23 01:33N 59°53' E 030°13'0 0.0
2015-Feb-23 00:30N 59°53' E 030°13'0 0.0
2015-Feb-22 23:33N 59°53' E 030°13'0 0.0
2015-Feb-22 22:31N 59°53' E 030°13'0 0.0
2015-Feb-22 21:32N 59°53' E 030°13'0 0.0
2015-Feb-22 20:25N 59°53' E 030°13'0 0.0
2015-Feb-22 19:32N 59°53' E 030°13'0 0.0
2015-Feb-22 18:31N 59°53' E 030°13'0 0.0
2015-Feb-22 17:31N 59°53' E 030°13'0 0.0
2015-Feb-22 16:32N 59°53' E 030°13'0 0.0
2015-Feb-22 15:29N 59°53' E 030°13'0 0.0
2015-Feb-22 14:32N 59°53' E 030°13'0 0.0
2015-Feb-22 13:29N 59°53' E 030°13'0 0.0
2015-Feb-22 12:33N 59°53' E 030°13'0 0.0
2015-Feb-22 11:27N 59°53' E 030°13'0 0.0
2015-Feb-22 10:25N 59°53' E 030°13'0 0.0
2015-Feb-22 09:31N 59°53' E 030°13'0 0.0
2015-Feb-22 08:33N 59°53' E 030°13'3 0.1
2015-Feb-20 21:11N 59°54' E 030°07'3 4.3
2015-Feb-20 20:34N 59°53' E 030°12'0 0.2
2015-Feb-20 19:33N 59°53' E 030°13'0 0.0
2015-Feb-20 18:33N 59°53' E 030°13'0 0.0
2015-Feb-20 17:32N 59°53' E 030°13'0 0.0
2015-Feb-20 16:33N 59°53' E 030°13'0 0.0
2015-Feb-20 15:34N 59°53' E 030°13'0 0.0
2015-Feb-20 14:33N 59°53' E 030°13'0 0.0
2015-Feb-20 13:33N 59°53' E 030°13'0 0.0
2015-Feb-20 12:33N 59°53' E 030°13'5 0.3
2015-Feb-19 20:14N 59°55' E 030°02'5 8.0
2015-Feb-19 19:33N 59°53' E 030°13'0 0.1
2015-Feb-19 18:26N 59°53' E 030°13'0 0.0
2015-Feb-19 08:04N 59°53' E 030°13'1 0.1
2015-Feb-18 16:30N 59°53' E 030°11'1 0.0
2015-Feb-17 21:33N 59°53' E 030°13'  

Dump ship's entire track history